Elizabeth, New Jersey
Current Conditions -  °F | °C
As of 5:51 PM on Wednesday 17 Dec 2014 (Local Time) from KEWR Reporting Station
Light Rain Light Rain  
Wind Chill: 43°   Ceiling: 4200
Heat Index: 48°   Visibility: 10mi
Dew Point: 34°   Wind: 13mph
Humidity: 58%   Direction: 280°W
Pressure: 29.87"   Gusts: 18mph
Location:  40.66°N, 74.21°W
Report Text: KEWR 172251Z 28011G16KT 10SM -RA FEW035 BKN042 OVC050 09/01 A2987 RMK AO2 RAB44 SLP115 T00890011 PNO $
Loading
Personal Weather Stations






























Interactive Weather Map New forecast layout! Learn more

10-Day Weather Forecast

Advertisements
Track Severe Weather on mobile